sensor_id;sensor_type;location;lat;lon;timestamp;temperature;humidity
46758;DHT22;32509;47.750;-3.396;2024-02-21T08:26:48;13.00;99.90
46758;DHT22;32509;47.750;-3.396;2024-02-21T08:29:14;12.80;99.90
46758;DHT22;32509;47.750;-3.396;2024-02-21T08:31:39;12.60;99.90
46758;DHT22;32509;47.750;-3.396;2024-02-21T08:34:05;12.50;99.90
46758;DHT22;32509;47.750;-3.396;2024-02-21T08:36:32;12.40;99.90
46758;DHT22;32509;47.750;-3.396;2024-02-21T08:38:59;12.30;99.90
46758;DHT22;32509;47.750;-3.396;2024-02-21T08:41:25;12.30;99.90
46758;DHT22;32509;47.750;-3.396;2024-02-21T08:43:51;12.30;99.90
46758;DHT22;32509;47.750;-3.396;2024-02-21T08:46:28;12.20;99.90
46758;DHT22;32509;47.750;-3.396;2024-02-21T08:48:54;12.20;99.90
46758;DHT22;32509;47.750;-3.396;2024-02-21T08:51:20;12.20;99.90
46758;DHT22;32509;47.750;-3.396;2024-02-21T08:53:46;12.20;99.90
46758;DHT22;32509;47.750;-3.396;2024-02-21T08:56:12;12.20;99.90
46758;DHT22;32509;47.750;-3.396;2024-02-21T08:58:39;12.20;99.90
46758;DHT22;32509;47.750;-3.396;2024-02-21T09:01:06;12.10;99.90
46758;DHT22;32509;47.750;-3.396;2024-02-21T09:03:36;12.20;99.90
46758;DHT22;32509;47.750;-3.396;2024-02-21T09:06:03;12.20;99.90
46758;DHT22;32509;47.750;-3.396;2024-02-21T09:08:29;12.20;99.90
46758;DHT22;32509;47.750;-3.396;2024-02-21T09:10:55;12.20;99.90
46758;DHT22;32509;47.750;-3.396;2024-02-21T09:13:21;12.20;99.90
46758;DHT22;32509;47.750;-3.396;2024-02-21T09:15:50;12.20;99.90
46758;DHT22;32509;47.750;-3.396;2024-02-21T09:18:16;12.20;99.90
46758;DHT22;32509;47.750;-3.396;2024-02-21T09:20:42;12.20;99.90
46758;DHT22;32509;47.750;-3.396;2024-02-21T09:23:09;12.20;99.90
46758;DHT22;32509;47.750;-3.396;2024-02-21T09:25:34;12.20;99.90
46758;DHT22;32509;47.750;-3.396;2024-02-21T09:28:02;12.20;99.90
46758;DHT22;32509;47.750;-3.396;2024-02-21T09:30:28;12.20;99.90
46758;DHT22;32509;47.750;-3.396;2024-02-21T09:32:54;12.20;99.90
46758;DHT22;32509;47.750;-3.396;2024-02-21T09:35:20;12.20;99.90
46758;DHT22;32509;47.750;-3.396;2024-02-21T09:37:48;12.20;99.90
46758;DHT22;32509;47.750;-3.396;2024-02-21T09:40:15;12.20;99.90
46758;DHT22;32509;47.750;-3.396;2024-02-21T09:42:47;12.20;99.90
46758;DHT22;32509;47.750;-3.396;2024-02-21T09:45:19;12.20;99.90
46758;DHT22;32509;47.750;-3.396;2024-02-21T09:50:30;12.20;99.90
46758;DHT22;32509;47.750;-3.396;2024-02-21T09:52:59;12.20;99.90
46758;DHT22;32509;47.750;-3.396;2024-02-21T09:55:27;12.20;99.90
46758;DHT22;32509;47.750;-3.396;2024-02-21T09:57:56;12.20;99.90
46758;DHT22;32509;47.750;-3.396;2024-02-21T10:00:23;12.20;99.90
46758;DHT22;32509;47.750;-3.396;2024-02-21T10:02:49;12.20;99.90
46758;DHT22;32509;47.750;-3.396;2024-02-21T10:05:17;12.20;99.90
46758;DHT22;32509;47.750;-3.396;2024-02-21T10:07:43;12.20;99.90
46758;DHT22;32509;47.750;-3.396;2024-02-21T10:10:10;12.20;99.90
46758;DHT22;32509;47.750;-3.396;2024-02-21T10:12:35;12.20;99.90
46758;DHT22;32509;47.750;-3.396;2024-02-21T10:15:05;12.20;99.90
46758;DHT22;32509;47.750;-3.396;2024-02-21T10:17:32;12.20;99.90
46758;DHT22;32509;47.750;-3.396;2024-02-21T10:20:11;12.20;99.90
46758;DHT22;32509;47.750;-3.396;2024-02-21T10:22:38;12.20;99.90
46758;DHT22;32509;47.750;-3.396;2024-02-21T10:25:11;12.20;99.90
46758;DHT22;32509;47.750;-3.396;2024-02-21T10:27:38;12.20;99.90
46758;DHT22;32509;47.750;-3.396;2024-02-21T10:30:06;12.20;99.90
46758;DHT22;32509;47.750;-3.396;2024-02-21T10:32:32;12.30;99.90
46758;DHT22;32509;47.750;-3.396;2024-02-21T10:35:02;12.30;99.90
46758;DHT22;32509;47.750;-3.396;2024-02-21T10:37:31;12.20;99.90
46758;DHT22;32509;47.750;-3.396;2024-02-21T10:39:57;12.20;99.90
46758;DHT22;32509;47.750;-3.396;2024-02-21T10:42:29;12.20;99.90
46758;DHT22;32509;47.750;-3.396;2024-02-21T10:45:01;12.20;99.90
46758;DHT22;32509;47.750;-3.396;2024-02-21T10:47:31;12.30;99.90
46758;DHT22;32509;47.750;-3.396;2024-02-21T10:50:07;12.20;99.90
46758;DHT22;32509;47.750;-3.396;2024-02-21T10:52:48;12.20;99.90
46758;DHT22;32509;47.750;-3.396;2024-02-21T10:55:20;12.20;99.90
46758;DHT22;32509;47.750;-3.396;2024-02-21T10:57:49;12.30;99.90
46758;DHT22;32509;47.750;-3.396;2024-02-21T11:00:17;12.30;99.90
46758;DHT22;32509;47.750;-3.396;2024-02-21T11:02:44;12.20;99.90
46758;DHT22;32509;47.750;-3.396;2024-02-21T11:05:12;12.30;99.90
46758;DHT22;32509;47.750;-3.396;2024-02-21T11:07:38;12.20;99.90
46758;DHT22;32509;47.750;-3.396;2024-02-21T11:10:05;12.20;99.90
46758;DHT22;32509;47.750;-3.396;2024-02-21T11:12:33;12.30;99.90
46758;DHT22;32509;47.750;-3.396;2024-02-21T11:15:08;12.30;99.90
46758;DHT22;32509;47.750;-3.396;2024-02-21T11:17:34;12.20;99.90
46758;DHT22;32509;47.750;-3.396;2024-02-21T11:20:13;12.30;99.90
46758;DHT22;32509;47.750;-3.396;2024-02-21T11:22:42;12.20;99.90
46758;DHT22;32509;47.750;-3.396;2024-02-21T11:25:09;12.30;99.90
46758;DHT22;32509;47.750;-3.396;2024-02-21T11:27:37;12.30;99.90
46758;DHT22;32509;47.750;-3.396;2024-02-21T11:30:05;12.20;99.90
46758;DHT22;32509;47.750;-3.396;2024-02-21T11:32:31;12.30;99.90
46758;DHT22;32509;47.750;-3.396;2024-02-21T11:35:02;12.30;99.90
46758;DHT22;32509;47.750;-3.396;2024-02-21T11:37:32;12.30;99.90
46758;DHT22;32509;47.750;-3.396;2024-02-21T11:40:02;12.30;99.90
46758;DHT22;32509;47.750;-3.396;2024-02-21T11:42:29;12.30;99.90
46758;DHT22;32509;47.750;-3.396;2024-02-21T11:44:59;12.30;99.90
46758;DHT22;32509;47.750;-3.396;2024-02-21T11:47:25;12.30;99.90
46758;DHT22;32509;47.750;-3.396;2024-02-21T11:49:53;12.30;99.90
46758;DHT22;32509;47.750;-3.396;2024-02-21T11:52:22;12.30;99.90
46758;DHT22;32509;47.750;-3.396;2024-02-21T11:54:51;12.30;99.90
46758;DHT22;32509;47.750;-3.396;2024-02-21T11:57:18;12.30;99.90
46758;DHT22;32509;47.750;-3.396;2024-02-21T11:59:44;12.30;99.90
46758;DHT22;32509;47.750;-3.396;2024-02-21T12:02:11;12.30;99.90
46758;DHT22;32509;47.750;-3.396;2024-02-21T12:04:37;12.30;99.90
46758;DHT22;32509;47.750;-3.396;2024-02-21T12:07:04;12.30;99.90
46758;DHT22;32509;47.750;-3.396;2024-02-21T12:09:30;12.30;99.90
46758;DHT22;32509;47.750;-3.396;2024-02-21T12:12:02;12.30;99.90
46758;DHT22;32509;47.750;-3.396;2024-02-21T12:14:32;12.30;99.90
46758;DHT22;32509;47.750;-3.396;2024-02-21T12:16:59;12.30;99.90
46758;DHT22;32509;47.750;-3.396;2024-02-21T12:19:25;12.30;99.90
46758;DHT22;32509;47.750;-3.396;2024-02-21T12:21:51;12.30;99.90
46758;DHT22;32509;47.750;-3.396;2024-02-21T12:24:27;12.30;99.90
46758;DHT22;32509;47.750;-3.396;2024-02-21T12:26:54;12.40;99.90
46758;DHT22;32509;47.750;-3.396;2024-02-21T12:29:23;12.40;99.90
46758;DHT22;32509;47.750;-3.396;2024-02-21T12:31:52;12.40;99.90
46758;DHT22;32509;47.750;-3.396;2024-02-21T12:34:19;12.40;99.90
46758;DHT22;32509;47.750;-3.396;2024-02-21T12:36:45;12.40;99.90
46758;DHT22;32509;47.750;-3.396;2024-02-21T12:39:14;12.40;99.90
46758;DHT22;32509;47.750;-3.396;2024-02-21T12:41:40;12.40;99.90
46758;DHT22;32509;47.750;-3.396;2024-02-21T12:45:49;13.30;99.90
46758;DHT22;32509;47.750;-3.396;2024-02-21T12:48:15;13.20;99.90
46758;DHT22;32509;47.750;-3.396;2024-02-21T12:50:50;13.00;99.90
46758;DHT22;32509;47.750;-3.396;2024-02-21T12:53:19;12.90;99.90
46758;DHT22;32509;47.750;-3.396;2024-02-21T12:55:49;12.70;99.90
46758;DHT22;32509;47.750;-3.396;2024-02-21T12:58:15;12.70;99.90
46758;DHT22;32509;47.750;-3.396;2024-02-21T13:00:41;12.70;99.90
46758;DHT22;32509;47.750;-3.396;2024-02-21T13:03:07;12.60;99.90
46758;DHT22;32509;47.750;-3.396;2024-02-21T13:05:35;12.50;99.90
46758;DHT22;32509;47.750;-3.396;2024-02-21T13:08:01;12.50;99.90
46758;DHT22;32509;47.750;-3.396;2024-02-21T13:10:26;12.60;99.90
46758;DHT22;32509;47.750;-3.396;2024-02-21T13:12:52;12.50;99.90
46758;DHT22;32509;47.750;-3.396;2024-02-21T13:15:18;12.50;99.90
46758;DHT22;32509;47.750;-3.396;2024-02-21T13:17:43;12.50;99.90
46758;DHT22;32509;47.750;-3.396;2024-02-21T13:20:10;12.50;99.90
46758;DHT22;32509;47.750;-3.396;2024-02-21T13:22:36;12.50;99.90
46758;DHT22;32509;47.750;-3.396;2024-02-21T13:25:02;12.50;99.90
46758;DHT22;32509;47.750;-3.396;2024-02-21T13:27:27;12.50;99.90
46758;DHT22;32509;47.750;-3.396;2024-02-21T13:29:53;12.50;99.90
46758;DHT22;32509;47.750;-3.396;2024-02-21T13:32:19;12.50;99.90
46758;DHT22;32509;47.750;-3.396;2024-02-21T13:34:44;12.50;99.90
46758;DHT22;32509;47.750;-3.396;2024-02-21T13:37:10;12.60;99.90
46758;DHT22;32509;47.750;-3.396;2024-02-21T13:39:36;12.60;99.90
46758;DHT22;32509;47.750;-3.396;2024-02-21T13:42:02;12.50;99.90
46758;DHT22;32509;47.750;-3.396;2024-02-21T13:44:33;12.60;99.90
46758;DHT22;32509;47.750;-3.396;2024-02-21T13:46:59;12.50;99.90
46758;DHT22;32509;47.750;-3.396;2024-02-21T13:49:25;12.60;99.90
46758;DHT22;32509;47.750;-3.396;2024-02-21T13:51:51;12.50;99.90
46758;DHT22;32509;47.750;-3.396;2024-02-21T13:54:16;12.50;99.90
46758;DHT22;32509;47.750;-3.396;2024-02-21T13:56:45;12.50;99.90
46758;DHT22;32509;47.750;-3.396;2024-02-21T13:59:11;12.50;99.90
46758;DHT22;32509;47.750;-3.396;2024-02-21T14:01:38;12.60;99.90
46758;DHT22;32509;47.750;-3.396;2024-02-21T14:04:04;12.60;99.90
46758;DHT22;32509;47.750;-3.396;2024-02-21T14:06:29;12.60;99.90
46758;DHT22;32509;47.750;-3.396;2024-02-21T14:08:55;12.60;99.90
46758;DHT22;32509;47.750;-3.396;2024-02-21T14:11:21;12.60;99.90
46758;DHT22;32509;47.750;-3.396;2024-02-21T14:13:47;12.60;99.90
46758;DHT22;32509;47.750;-3.396;2024-02-21T14:16:12;12.60;99.90
46758;DHT22;32509;47.750;-3.396;2024-02-21T14:18:41;12.60;99.90
46758;DHT22;32509;47.750;-3.396;2024-02-21T14:21:07;12.60;99.90
46758;DHT22;32509;47.750;-3.396;2024-02-21T14:23:36;12.60;99.90
46758;DHT22;32509;47.750;-3.396;2024-02-21T14:26:02;12.60;99.90
46758;DHT22;32509;47.750;-3.396;2024-02-21T14:28:28;12.60;99.90
46758;DHT22;32509;47.750;-3.396;2024-02-21T14:30:54;12.60;99.90
46758;DHT22;32509;47.750;-3.396;2024-02-21T14:33:28;12.60;99.90
46758;DHT22;32509;47.750;-3.396;2024-02-21T14:35:54;12.60;99.90
46758;DHT22;32509;47.750;-3.396;2024-02-21T14:38:20;12.60;99.90
46758;DHT22;32509;47.750;-3.396;2024-02-21T14:40:45;12.60;99.90
46758;DHT22;32509;47.750;-3.396;2024-02-21T14:43:11;12.60;99.90
46758;DHT22;32509;47.750;-3.396;2024-02-21T14:45:36;12.60;99.90
46758;DHT22;32509;47.750;-3.396;2024-02-21T14:48:04;12.60;99.90
46758;DHT22;32509;47.750;-3.396;2024-02-21T14:50:30;12.60;99.90
46758;DHT22;32509;47.750;-3.396;2024-02-21T14:52:55;12.60;99.90
46758;DHT22;32509;47.750;-3.396;2024-02-21T14:55:21;12.60;99.90
46758;DHT22;32509;47.750;-3.396;2024-02-21T14:57:46;12.60;99.90
46758;DHT22;32509;47.750;-3.396;2024-02-21T15:00:12;12.60;99.90
46758;DHT22;32509;47.750;-3.396;2024-02-21T15:02:38;12.60;99.90
46758;DHT22;32509;47.750;-3.396;2024-02-21T15:05:04;12.60;99.90
46758;DHT22;32509;47.750;-3.396;2024-02-21T15:07:31;12.60;99.90
46758;DHT22;32509;47.750;-3.396;2024-02-21T15:09:56;12.70;99.90
46758;DHT22;32509;47.750;-3.396;2024-02-21T15:12:22;12.70;99.90
46758;DHT22;32509;47.750;-3.396;2024-02-21T15:14:48;12.70;99.90
46758;DHT22;32509;47.750;-3.396;2024-02-21T15:17:14;12.60;99.90
46758;DHT22;32509;47.750;-3.396;2024-02-21T15:19:40;12.60;99.90
46758;DHT22;32509;47.750;-3.396;2024-02-21T15:22:09;12.70;99.90
46758;DHT22;32509;47.750;-3.396;2024-02-21T15:24:37;12.70;99.90
46758;DHT22;32509;47.750;-3.396;2024-02-21T15:27:03;12.70;99.90
46758;DHT22;32509;47.750;-3.396;2024-02-21T15:29:28;12.60;99.90
46758;DHT22;32509;47.750;-3.396;2024-02-21T15:31:54;12.60;99.90
46758;DHT22;32509;47.750;-3.396;2024-02-21T15:34:19;12.70;99.90
46758;DHT22;32509;47.750;-3.396;2024-02-21T15:36:45;12.60;99.90
46758;DHT22;32509;47.750;-3.396;2024-02-21T15:39:11;12.70;99.90
46758;DHT22;32509;47.750;-3.396;2024-02-21T15:41:36;12.70;99.90
46758;DHT22;32509;47.750;-3.396;2024-02-21T15:44:02;12.60;99.90
46758;DHT22;32509;47.750;-3.396;2024-02-21T15:46:29;12.70;99.90
46758;DHT22;32509;47.750;-3.396;2024-02-21T15:48:56;12.70;99.90
46758;DHT22;32509;47.750;-3.396;2024-02-21T15:51:22;12.70;99.90
46758;DHT22;32509;47.750;-3.396;2024-02-21T15:53:49;12.70;99.90
46758;DHT22;32509;47.750;-3.396;2024-02-21T15:56:14;12.70;99.90
46758;DHT22;32509;47.750;-3.396;2024-02-21T15:58:40;12.70;99.90
46758;DHT22;32509;47.750;-3.396;2024-02-21T16:01:06;12.60;99.90
46758;DHT22;32509;47.750;-3.396;2024-02-21T16:03:32;12.70;99.90
46758;DHT22;32509;47.750;-3.396;2024-02-21T16:05:57;12.60;99.90
46758;DHT22;32509;47.750;-3.396;2024-02-21T16:08:23;12.70;99.90
46758;DHT22;32509;47.750;-3.396;2024-02-21T16:10:49;12.70;99.90
46758;DHT22;32509;47.750;-3.396;2024-02-21T16:13:16;12.70;99.90
46758;DHT22;32509;47.750;-3.396;2024-02-21T16:15:41;12.70;99.90
46758;DHT22;32509;47.750;-3.396;2024-02-21T16:18:07;12.70;99.90
46758;DHT22;32509;47.750;-3.396;2024-02-21T16:20:33;12.70;99.90
46758;DHT22;32509;47.750;-3.396;2024-02-21T16:22:59;12.70;99.90
46758;DHT22;32509;47.750;-3.396;2024-02-21T16:25:31;12.70;99.90
46758;DHT22;32509;47.750;-3.396;2024-02-21T16:27:57;12.70;99.90
46758;DHT22;32509;47.750;-3.396;2024-02-21T16:30:23;12.70;99.90
46758;DHT22;32509;47.750;-3.396;2024-02-21T16:32:49;12.70;99.90
46758;DHT22;32509;47.750;-3.396;2024-02-21T16:35:17;12.70;99.90
46758;DHT22;32509;47.750;-3.396;2024-02-21T16:37:44;12.70;99.90
46758;DHT22;32509;47.750;-3.396;2024-02-21T16:40:10;12.70;99.90
46758;DHT22;32509;47.750;-3.396;2024-02-21T16:42:35;12.70;99.90
46758;DHT22;32509;47.750;-3.396;2024-02-21T16:45:01;12.70;99.90
46758;DHT22;32509;47.750;-3.396;2024-02-21T16:47:27;12.70;99.90
46758;DHT22;32509;47.750;-3.396;2024-02-21T16:49:52;12.70;99.90
46758;DHT22;32509;47.750;-3.396;2024-02-21T16:52:18;12.70;99.90
46758;DHT22;32509;47.750;-3.396;2024-02-21T16:54:44;12.70;99.90
46758;DHT22;32509;47.750;-3.396;2024-02-21T16:57:09;12.70;99.90
46758;DHT22;32509;47.750;-3.396;2024-02-21T16:59:35;12.70;99.90
46758;DHT22;32509;47.750;-3.396;2024-02-21T17:02:03;12.80;99.90
46758;DHT22;32509;47.750;-3.396;2024-02-21T17:04:29;12.70;99.90
46758;DHT22;32509;47.750;-3.396;2024-02-21T17:06:54;12.70;99.90
46758;DHT22;32509;47.750;-3.396;2024-02-21T17:10:05;13.00;99.90
46758;DHT22;32509;47.750;-3.396;2024-02-21T17:12:32;13.10;99.90
46758;DHT22;32509;47.750;-3.396;2024-02-21T17:14:59;13.00;99.90
46758;DHT22;32509;47.750;-3.396;2024-02-21T17:17:24;12.90;99.90
46758;DHT22;32509;47.750;-3.396;2024-02-21T17:19:50;12.90;99.90
46758;DHT22;32509;47.750;-3.396;2024-02-21T17:22:16;12.90;99.90
46758;DHT22;32509;47.750;-3.396;2024-02-21T17:24:41;12.80;99.90
46758;DHT22;32509;47.750;-3.396;2024-02-21T17:27:08;12.80;99.90
46758;DHT22;32509;47.750;-3.396;2024-02-21T17:29:34;12.80;99.90
46758;DHT22;32509;47.750;-3.396;2024-02-21T17:31:59;12.70;99.90
46758;DHT22;32509;47.750;-3.396;2024-02-21T17:34:25;12.80;99.90
46758;DHT22;32509;47.750;-3.396;2024-02-21T17:36:52;12.80;99.90
46758;DHT22;32509;47.750;-3.396;2024-02-21T17:39:18;12.80;99.90
46758;DHT22;32509;47.750;-3.396;2024-02-21T17:41:44;12.70;99.90
46758;DHT22;32509;47.750;-3.396;2024-02-21T17:44:10;12.70;99.90
46758;DHT22;32509;47.750;-3.396;2024-02-21T17:46:43;12.70;99.90
46758;DHT22;32509;47.750;-3.396;2024-02-21T17:49:10;12.70;99.90
46758;DHT22;32509;47.750;-3.396;2024-02-21T17:51:36;12.70;99.90
46758;DHT22;32509;47.750;-3.396;2024-02-21T17:54:02;12.70;99.90
46758;DHT22;32509;47.750;-3.396;2024-02-21T17:56:28;12.70;99.90
46758;DHT22;32509;47.750;-3.396;2024-02-21T17:58:54;12.80;99.90
46758;DHT22;32509;47.750;-3.396;2024-02-21T18:01:20;12.80;99.90
46758;DHT22;32509;47.750;-3.396;2024-02-21T18:03:45;12.80;99.90
46758;DHT22;32509;47.750;-3.396;2024-02-21T18:06:11;12.80;99.90
46758;DHT22;32509;47.750;-3.396;2024-02-21T18:08:37;12.70;99.90
46758;DHT22;32509;47.750;-3.396;2024-02-21T18:11:03;12.80;99.90
46758;DHT22;32509;47.750;-3.396;2024-02-21T18:13:28;12.70;99.90
46758;DHT22;32509;47.750;-3.396;2024-02-21T18:16:03;12.70;99.90
46758;DHT22;32509;47.750;-3.396;2024-02-21T18:18:29;12.70;99.90
46758;DHT22;32509;47.750;-3.396;2024-02-21T18:20:56;12.70;99.90
46758;DHT22;32509;47.750;-3.396;2024-02-21T18:23:22;12.70;99.90
46758;DHT22;32509;47.750;-3.396;2024-02-21T18:25:48;12.70;99.90
46758;DHT22;32509;47.750;-3.396;2024-02-21T18:28:14;12.70;99.90
46758;DHT22;32509;47.750;-3.396;2024-02-21T18:30:40;12.70;99.90
46758;DHT22;32509;47.750;-3.396;2024-02-21T18:33:06;12.70;99.90
46758;DHT22;32509;47.750;-3.396;2024-02-21T18:35:32;12.70;99.90
46758;DHT22;32509;47.750;-3.396;2024-02-21T18:37:58;12.70;99.90
46758;DHT22;32509;47.750;-3.396;2024-02-21T18:40:24;12.70;99.90
46758;DHT22;32509;47.750;-3.396;2024-02-21T18:42:50;12.70;99.90
46758;DHT22;32509;47.750;-3.396;2024-02-21T18:45:16;12.70;99.90
46758;DHT22;32509;47.750;-3.396;2024-02-21T18:47:42;12.70;99.90
46758;DHT22;32509;47.750;-3.396;2024-02-21T18:50:09;12.70;99.90
46758;DHT22;32509;47.750;-3.396;2024-02-21T18:52:35;12.70;99.90
46758;DHT22;32509;47.750;-3.396;2024-02-21T18:55:01;12.70;99.90
46758;DHT22;32509;47.750;-3.396;2024-02-21T18:57:27;12.70;99.90
46758;DHT22;32509;47.750;-3.396;2024-02-21T18:59:52;12.70;99.90
46758;DHT22;32509;47.750;-3.396;2024-02-21T19:02:20;12.70;99.90
46758;DHT22;32509;47.750;-3.396;2024-02-21T19:04:46;12.70;99.90
46758;DHT22;32509;47.750;-3.396;2024-02-21T19:07:12;12.70;99.90
46758;DHT22;32509;47.750;-3.396;2024-02-21T19:09:39;12.70;99.90
46758;DHT22;32509;47.750;-3.396;2024-02-21T19:12:06;12.70;99.90
46758;DHT22;32509;47.750;-3.396;2024-02-21T19:14:32;12.70;99.90
46758;DHT22;32509;47.750;-3.396;2024-02-21T19:16:58;12.70;99.90
46758;DHT22;32509;47.750;-3.396;2024-02-21T19:19:25;12.70;99.90
46758;DHT22;32509;47.750;-3.396;2024-02-21T19:21:51;12.70;99.90
46758;DHT22;32509;47.750;-3.396;2024-02-21T19:24:17;12.70;99.90
46758;DHT22;32509;47.750;-3.396;2024-02-21T19:26:43;12.70;99.90
46758;DHT22;32509;47.750;-3.396;2024-02-21T19:29:08;12.70;99.90
46758;DHT22;32509;47.750;-3.396;2024-02-21T19:31:34;12.70;99.90
46758;DHT22;32509;47.750;-3.396;2024-02-21T19:34:01;12.70;99.90
46758;DHT22;32509;47.750;-3.396;2024-02-21T19:36:28;12.70;99.90
46758;DHT22;32509;47.750;-3.396;2024-02-21T19:38:54;12.70;99.90
46758;DHT22;32509;47.750;-3.396;2024-02-21T19:41:19;12.70;99.90
46758;DHT22;32509;47.750;-3.396;2024-02-21T19:43:45;12.70;99.90
46758;DHT22;32509;47.750;-3.396;2024-02-21T19:46:12;12.70;99.90
46758;DHT22;32509;47.750;-3.396;2024-02-21T19:48:37;12.80;99.90
46758;DHT22;32509;47.750;-3.396;2024-02-21T19:51:03;12.70;99.90
46758;DHT22;32509;47.750;-3.396;2024-02-21T19:53:30;12.80;99.90
46758;DHT22;32509;47.750;-3.396;2024-02-21T19:55:58;12.70;99.90
46758;DHT22;32509;47.750;-3.396;2024-02-21T19:58:25;12.70;99.90
46758;DHT22;32509;47.750;-3.396;2024-02-21T20:00:51;12.70;99.90
46758;DHT22;32509;47.750;-3.396;2024-02-21T20:03:17;12.70;99.90
46758;DHT22;32509;47.750;-3.396;2024-02-21T20:05:43;12.70;99.90
46758;DHT22;32509;47.750;-3.396;2024-02-21T20:08:09;12.70;99.90
46758;DHT22;32509;47.750;-3.396;2024-02-21T20:10:36;12.70;99.90
46758;DHT22;32509;47.750;-3.396;2024-02-21T20:13:02;12.70;99.90
46758;DHT22;32509;47.750;-3.396;2024-02-21T20:15:30;12.70;99.90
46758;DHT22;32509;47.750;-3.396;2024-02-21T20:17:56;12.70;99.90
46758;DHT22;32509;47.750;-3.396;2024-02-21T20:20:22;12.70;99.90
46758;DHT22;32509;47.750;-3.396;2024-02-21T20:22:48;12.70;99.90
46758;DHT22;32509;47.750;-3.396;2024-02-21T20:25:14;12.70;99.90
46758;DHT22;32509;47.750;-3.396;2024-02-21T20:27:42;12.70;99.90
46758;DHT22;32509;47.750;-3.396;2024-02-21T20:30:09;12.70;99.90
46758;DHT22;32509;47.750;-3.396;2024-02-21T20:32:35;12.70;99.90
46758;DHT22;32509;47.750;-3.396;2024-02-21T20:35:01;12.70;99.90
46758;DHT22;32509;47.750;-3.396;2024-02-21T20:37:26;12.70;99.90
46758;DHT22;32509;47.750;-3.396;2024-02-21T20:39:52;12.70;99.90
46758;DHT22;32509;47.750;-3.396;2024-02-21T20:42:18;12.70;99.90
46758;DHT22;32509;47.750;-3.396;2024-02-21T20:44:44;12.70;99.90
46758;DHT22;32509;47.750;-3.396;2024-02-21T20:47:10;12.70;99.90
46758;DHT22;32509;47.750;-3.396;2024-02-21T20:49:36;12.70;99.90
46758;DHT22;32509;47.750;-3.396;2024-02-21T20:52:03;12.70;99.90
46758;DHT22;32509;47.750;-3.396;2024-02-21T20:54:29;12.70;99.90
46758;DHT22;32509;47.750;-3.396;2024-02-21T20:56:55;12.70;99.90
46758;DHT22;32509;47.750;-3.396;2024-02-21T20:59:20;12.70;99.90
46758;DHT22;32509;47.750;-3.396;2024-02-21T21:01:49;12.70;99.90
46758;DHT22;32509;47.750;-3.396;2024-02-21T21:04:15;12.70;99.90
46758;DHT22;32509;47.750;-3.396;2024-02-21T21:06:41;12.70;99.90
46758;DHT22;32509;47.750;-3.396;2024-02-21T21:09:06;12.70;99.90
46758;DHT22;32509;47.750;-3.396;2024-02-21T21:11:36;12.80;99.90
46758;DHT22;32509;47.750;-3.396;2024-02-21T21:14:03;12.70;99.90
46758;DHT22;32509;47.750;-3.396;2024-02-21T21:16:29;12.70;99.90
46758;DHT22;32509;47.750;-3.396;2024-02-21T21:18:58;12.70;99.90
46758;DHT22;32509;47.750;-3.396;2024-02-21T21:21:24;12.70;99.90
46758;DHT22;32509;47.750;-3.396;2024-02-21T21:23:50;12.70;99.90
46758;DHT22;32509;47.750;-3.396;2024-02-21T21:26:15;12.70;99.90
46758;DHT22;32509;47.750;-3.396;2024-02-21T21:28:41;12.70;99.90
46758;DHT22;32509;47.750;-3.396;2024-02-21T21:31:07;12.70;99.90
46758;DHT22;32509;47.750;-3.396;2024-02-21T21:33:33;12.70;99.90
46758;DHT22;32509;47.750;-3.396;2024-02-21T21:35:58;12.70;99.90
46758;DHT22;32509;47.750;-3.396;2024-02-21T21:38:24;12.70;99.90
46758;DHT22;32509;47.750;-3.396;2024-02-21T21:40:50;12.70;99.90
46758;DHT22;32509;47.750;-3.396;2024-02-21T21:43:16;12.70;99.90
46758;DHT22;32509;47.750;-3.396;2024-02-21T21:45:43;12.70;99.90
46758;DHT22;32509;47.750;-3.396;2024-02-21T21:48:09;12.70;99.90
46758;DHT22;32509;47.750;-3.396;2024-02-21T21:50:35;12.70;99.90
46758;DHT22;32509;47.750;-3.396;2024-02-21T21:53:02;12.70;99.90
46758;DHT22;32509;47.750;-3.396;2024-02-21T21:55:28;12.80;99.90
46758;DHT22;32509;47.750;-3.396;2024-02-21T21:57:55;12.70;99.90
46758;DHT22;32509;47.750;-3.396;2024-02-21T22:00:21;12.70;99.90
46758;DHT22;32509;47.750;-3.396;2024-02-21T22:02:46;12.80;99.90
46758;DHT22;32509;47.750;-3.396;2024-02-21T22:05:13;12.80;99.90
46758;DHT22;32509;47.750;-3.396;2024-02-21T22:07:39;12.70;99.90
46758;DHT22;32509;47.750;-3.396;2024-02-21T22:10:05;12.70;99.90
46758;DHT22;32509;47.750;-3.396;2024-02-21T22:12:32;12.80;99.90
46758;DHT22;32509;47.750;-3.396;2024-02-21T22:14:58;12.80;99.90
46758;DHT22;32509;47.750;-3.396;2024-02-21T22:17:24;12.70;99.90
46758;DHT22;32509;47.750;-3.396;2024-02-21T22:19:49;12.80;99.90
46758;DHT22;32509;47.750;-3.396;2024-02-21T22:22:15;12.80;99.90
46758;DHT22;32509;47.750;-3.396;2024-02-21T22:24:42;12.70;99.90
46758;DHT22;32509;47.750;-3.396;2024-02-21T22:27:13;12.80;99.90
46758;DHT22;32509;47.750;-3.396;2024-02-21T22:29:39;12.80;99.90
46758;DHT22;32509;47.750;-3.396;2024-02-21T22:32:05;12.80;99.90
46758;DHT22;32509;47.750;-3.396;2024-02-21T22:34:31;12.80;99.90
46758;DHT22;32509;47.750;-3.396;2024-02-21T22:36:57;12.80;99.90
46758;DHT22;32509;47.750;-3.396;2024-02-21T22:39:24;12.80;99.90
46758;DHT22;32509;47.750;-3.396;2024-02-21T22:41:50;12.80;99.90
46758;DHT22;32509;47.750;-3.396;2024-02-21T22:44:16;12.80;99.90
46758;DHT22;32509;47.750;-3.396;2024-02-21T22:46:41;12.80;99.90
46758;DHT22;32509;47.750;-3.396;2024-02-21T22:49:07;12.80;99.90
46758;DHT22;32509;47.750;-3.396;2024-02-21T22:51:33;12.80;99.90
46758;DHT22;32509;47.750;-3.396;2024-02-21T22:53:59;12.80;99.90
46758;DHT22;32509;47.750;-3.396;2024-02-21T22:56:25;12.80;99.90
46758;DHT22;32509;47.750;-3.396;2024-02-21T22:58:52;12.70;99.90
46758;DHT22;32509;47.750;-3.396;2024-02-21T23:01:18;12.70;99.90
46758;DHT22;32509;47.750;-3.396;2024-02-21T23:03:44;12.80;99.90
46758;DHT22;32509;47.750;-3.396;2024-02-21T23:06:10;12.80;99.90
46758;DHT22;32509;47.750;-3.396;2024-02-21T23:08:36;12.80;99.90
46758;DHT22;32509;47.750;-3.396;2024-02-21T23:11:03;12.80;99.90
46758;DHT22;32509;47.750;-3.396;2024-02-21T23:13:30;12.80;99.90
46758;DHT22;32509;47.750;-3.396;2024-02-21T23:15:56;12.80;99.90
46758;DHT22;32509;47.750;-3.396;2024-02-21T23:18:22;12.80;99.90
46758;DHT22;32509;47.750;-3.396;2024-02-21T23:20:48;12.80;99.90
46758;DHT22;32509;47.750;-3.396;2024-02-21T23:23:15;12.70;99.90
46758;DHT22;32509;47.750;-3.396;2024-02-21T23:25:42;12.80;99.90
46758;DHT22;32509;47.750;-3.396;2024-02-21T23:28:07;12.80;99.90
46758;DHT22;32509;47.750;-3.396;2024-02-21T23:30:33;12.70;99.90
46758;DHT22;32509;47.750;-3.396;2024-02-21T23:32:59;12.80;99.90
46758;DHT22;32509;47.750;-3.396;2024-02-21T23:35:25;12.80;99.90
46758;DHT22;32509;47.750;-3.396;2024-02-21T23:37:51;12.70;99.90
46758;DHT22;32509;47.750;-3.396;2024-02-21T23:40:17;12.80;99.90
46758;DHT22;32509;47.750;-3.396;2024-02-21T23:42:43;12.70;99.90